createdAt,value
2019-01-15T00:00:52.426Z,3.10
2019-01-15T00:03:19.869Z,2.40
2019-01-15T00:05:47.189Z,3.60
2019-01-15T00:08:14.694Z,4.93
2019-01-15T00:10:42.323Z,3.10
2019-01-15T00:13:09.725Z,2.30
2019-01-15T00:15:37.263Z,3.07
2019-01-15T00:18:04.911Z,2.87
2019-01-15T00:20:32.358Z,3.23
2019-01-15T00:22:59.971Z,3.60
2019-01-15T00:25:27.297Z,3.27
2019-01-15T00:27:54.911Z,2.90
2019-01-15T00:30:22.295Z,2.80
2019-01-15T00:32:52.124Z,2.73
2019-01-15T00:35:19.684Z,2.53
2019-01-15T00:37:47.034Z,3.37
2019-01-15T00:40:15.849Z,2.60
2019-01-15T00:42:43.547Z,3.23
2019-01-15T00:45:11.883Z,2.20
2019-01-15T00:47:39.498Z,2.20
2019-01-15T00:50:26.398Z,3.40
2019-01-15T00:52:53.990Z,2.53
2019-01-15T00:55:21.406Z,2.80
2019-01-15T00:57:48.828Z,2.40
2019-01-15T01:00:18.607Z,2.83
2019-01-15T01:02:46.024Z,3.00
2019-01-15T01:05:13.979Z,3.17
2019-01-15T01:08:01.046Z,3.20
2019-01-15T01:10:28.346Z,2.63
2019-01-15T01:13:15.298Z,2.70
2019-01-15T01:15:42.989Z,2.33
2019-01-15T01:18:10.527Z,2.40
2019-01-15T01:20:38.006Z,3.40
2019-01-15T01:23:05.636Z,2.70
2019-01-15T01:25:33.085Z,2.57
2019-01-15T01:28:00.473Z,2.80
2019-01-15T01:30:28.154Z,2.47
2019-01-15T01:32:56.684Z,3.10
2019-01-15T01:35:24.373Z,2.57
2019-01-15T01:37:51.862Z,2.50
2019-01-15T01:40:19.841Z,2.60
2019-01-15T01:42:47.326Z,2.70
2019-01-15T01:45:15.390Z,2.37
2019-01-15T01:47:43.035Z,3.70
2019-01-15T01:50:11.682Z,2.53
2019-01-15T01:52:39.488Z,2.33
2019-01-15T01:55:08.759Z,5.50
2019-01-15T01:57:36.270Z,3.10
2019-01-15T02:00:06.182Z,2.07
2019-01-15T02:02:33.746Z,2.80
2019-01-15T02:05:01.355Z,2.10
2019-01-15T02:07:29.632Z,2.90
2019-01-15T02:09:57.327Z,3.47
2019-01-15T02:12:24.946Z,2.07
2019-01-15T02:14:52.322Z,3.63
2019-01-15T02:17:19.614Z,2.97
2019-01-15T02:19:46.908Z,2.40
2019-01-15T02:22:14.307Z,3.63
2019-01-15T02:24:41.734Z,2.23
2019-01-15T02:27:12.231Z,2.30
2019-01-15T02:29:39.602Z,2.73
2019-01-15T02:32:08.286Z,3.00
2019-01-15T02:34:35.659Z,2.30
2019-01-15T02:37:03.315Z,2.33
2019-01-15T02:39:31.183Z,2.60
2019-01-15T02:41:58.774Z,3.00
2019-01-15T02:44:26.167Z,2.87
2019-01-15T02:46:53.600Z,2.20
2019-01-15T02:49:21.136Z,2.33
2019-01-15T02:51:48.702Z,2.00
2019-01-15T02:54:16.319Z,2.33
2019-01-15T02:56:43.871Z,3.53
2019-01-15T02:59:11.358Z,2.47
2019-01-15T03:02:13.547Z,2.70
2019-01-15T03:04:41.144Z,1.63
2019-01-15T03:07:08.671Z,2.13
2019-01-15T03:09:36.066Z,3.37
2019-01-15T03:12:03.831Z,1.93
2019-01-15T03:14:31.212Z,2.43
2019-01-15T03:16:58.598Z,1.97
2019-01-15T03:19:26.526Z,1.90
2019-01-15T03:21:53.803Z,1.37
2019-01-15T03:24:21.555Z,2.33
2019-01-15T03:27:08.493Z,2.10
2019-01-15T03:29:35.905Z,2.50
2019-01-15T03:32:03.389Z,1.60
2019-01-15T03:34:30.725Z,2.17
2019-01-15T03:36:58.191Z,1.67
2019-01-15T03:39:25.575Z,2.33
2019-01-15T03:41:53.025Z,2.07
2019-01-15T03:44:20.558Z,1.73
2019-01-15T03:46:47.841Z,2.23
2019-01-15T03:49:15.312Z,3.00
2019-01-15T03:51:42.650Z,1.93
2019-01-15T03:54:09.966Z,1.53
2019-01-15T03:56:37.518Z,1.60
2019-01-15T03:59:04.931Z,2.50
2019-01-15T04:01:33.120Z,1.80
2019-01-15T04:04:00.462Z,2.60
2019-01-15T04:06:27.961Z,1.80
2019-01-15T04:08:55.370Z,2.17
2019-01-15T04:11:22.822Z,1.47
2019-01-15T04:13:50.354Z,2.90
2019-01-15T04:16:17.743Z,2.73
2019-01-15T04:18:45.160Z,1.60
2019-01-15T04:21:12.983Z,1.43
2019-01-15T04:23:40.281Z,1.67
2019-01-15T04:26:07.659Z,1.90
2019-01-15T04:28:35.012Z,2.70
2019-01-15T04:31:02.397Z,2.13
2019-01-15T04:33:29.678Z,2.00
2019-01-15T04:35:57.025Z,1.97
2019-01-15T04:38:24.519Z,1.60
2019-01-15T04:40:53.817Z,1.43
2019-01-15T04:43:34.292Z,1.57
2019-01-15T04:46:21.978Z,1.80
2019-01-15T04:48:49.435Z,1.50
2019-01-15T04:51:16.787Z,1.67
2019-01-15T04:53:44.094Z,2.03
2019-01-15T04:56:11.846Z,1.77
2019-01-15T04:58:39.302Z,1.80
2019-01-15T05:01:06.799Z,1.60
2019-01-15T05:04:00.313Z,1.30
2019-01-15T05:06:31.030Z,2.10
2019-01-15T05:08:58.427Z,1.20
2019-01-15T05:11:45.219Z,1.60
2019-01-15T05:14:12.698Z,1.77
2019-01-15T05:16:39.958Z,2.17
2019-01-15T05:19:07.253Z,1.80
2019-01-15T05:21:34.672Z,1.80
2019-01-15T05:24:02.045Z,1.60
2019-01-15T05:26:29.427Z,3.87
2019-01-15T05:28:56.826Z,1.70
2019-01-15T05:31:24.233Z,1.60
2019-01-15T05:33:51.595Z,1.83
2019-01-15T05:36:19.082Z,1.80
2019-01-15T05:38:47.028Z,2.30
2019-01-15T05:41:14.607Z,2.53
2019-01-15T05:43:41.944Z,1.70
2019-01-15T05:46:09.423Z,1.70
2019-01-15T05:48:37.152Z,1.60
2019-01-15T05:51:24.027Z,2.40
2019-01-15T05:53:51.511Z,2.10
2019-01-15T05:56:19.166Z,1.90
2019-01-15T05:58:46.534Z,1.87
2019-01-15T06:01:14.334Z,2.30
2019-01-15T06:03:41.717Z,1.63
2019-01-15T06:06:09.266Z,1.77
2019-01-15T06:08:36.744Z,1.73
2019-01-15T06:11:04.178Z,1.90
2019-01-15T06:13:31.593Z,2.10
2019-01-15T06:15:59.474Z,1.77
2019-01-15T06:18:27.125Z,2.20
2019-01-15T06:20:55.618Z,2.20
2019-01-15T06:23:23.094Z,2.20
2019-01-15T06:25:50.611Z,2.93
2019-01-15T06:28:18.350Z,3.20
2019-01-15T06:30:46.116Z,3.00
2019-01-15T06:33:13.713Z,2.90
2019-01-15T06:35:41.230Z,3.40
2019-01-15T06:38:08.754Z,3.53
2019-01-15T06:40:36.199Z,3.80
2019-01-15T06:43:03.914Z,3.10
2019-01-15T06:45:31.645Z,3.17
2019-01-15T06:47:59.633Z,4.00
2019-01-15T06:50:27.030Z,3.40
2019-01-15T06:52:54.494Z,3.80
2019-01-15T06:55:22.132Z,5.40
2019-01-15T06:57:49.909Z,4.23
2019-01-15T07:00:22.032Z,4.47
2019-01-15T07:02:49.545Z,4.50
2019-01-15T07:05:17.750Z,4.13
2019-01-15T07:07:45.138Z,4.87
2019-01-15T07:10:18.547Z,4.50
2019-01-15T07:12:46.016Z,5.50
2019-01-15T07:15:13.493Z,5.60
2019-01-15T07:17:40.876Z,5.70
2019-01-15T07:20:10.046Z,5.70
2019-01-15T07:22:37.540Z,5.60
2019-01-15T07:25:24.659Z,6.10
2019-01-15T07:27:52.003Z,6.70
2019-01-15T07:30:22.593Z,6.60
2019-01-15T07:32:50.087Z,7.90
2019-01-15T07:35:17.533Z,8.20
2019-01-15T07:37:44.810Z,8.20
2019-01-15T07:40:12.625Z,9.17
2019-01-15T07:42:40.291Z,9.47
2019-01-15T07:45:09.239Z,10.77
2019-01-15T07:47:37.045Z,10.87
2019-01-15T07:50:06.794Z,11.40
2019-01-15T07:52:34.317Z,10.33
2019-01-15T07:55:01.783Z,11.50
2019-01-15T07:57:30.260Z,12.53
2019-01-15T07:59:57.767Z,12.07
2019-01-15T08:02:25.180Z,13.30
2019-01-15T08:04:52.710Z,12.70
2019-01-15T08:07:23.162Z,14.17
2019-01-15T08:09:50.661Z,13.20
2019-01-15T08:12:18.118Z,13.80
2019-01-15T08:14:45.555Z,15.27
2019-01-15T08:17:13.130Z,14.70
2019-01-15T08:19:40.623Z,15.50
2019-01-15T08:22:08.099Z,15.03
2019-01-15T08:24:35.542Z,15.63
2019-01-15T08:27:03.055Z,15.97
2019-01-15T08:29:30.303Z,15.47
2019-01-15T08:31:57.632Z,15.40
2019-01-15T08:34:25.002Z,15.27
2019-01-15T08:36:52.402Z,15.40
2019-01-15T08:39:20.028Z,15.27
2019-01-15T08:41:47.566Z,16.37
2019-01-15T08:44:19.214Z,17.13
2019-01-15T08:46:44.182Z,16.30
2019-01-15T08:49:11.663Z,16.10
2019-01-15T08:51:39.705Z,15.77
2019-01-15T08:54:07.347Z,15.07
2019-01-15T08:56:34.786Z,16.63
2019-01-15T08:59:02.347Z,16.60
2019-01-15T09:01:29.871Z,15.70
2019-01-15T09:03:57.244Z,15.40
2019-01-15T09:06:24.517Z,15.73
2019-01-15T09:08:52.067Z,17.43
2019-01-15T09:11:19.418Z,18.30
2019-01-15T09:13:52.717Z,15.17
2019-01-15T09:16:20.075Z,16.10
2019-01-15T09:18:47.487Z,18.40
2019-01-15T09:21:27.534Z,16.97
2019-01-15T09:23:54.934Z,17.13
2019-01-15T09:26:22.621Z,18.37
2019-01-15T09:28:50.334Z,18.00
2019-01-15T09:31:17.794Z,20.20
2019-01-15T09:33:45.073Z,19.67
2019-01-15T09:36:12.531Z,19.73
2019-01-15T09:38:39.898Z,19.00
2019-01-15T09:41:07.209Z,19.67
2019-01-15T09:43:34.894Z,21.23
2019-01-15T09:46:02.291Z,22.87
2019-01-15T09:48:34.460Z,21.70
2019-01-15T09:51:01.863Z,22.40
2019-01-15T09:53:29.222Z,22.43
2019-01-15T09:55:56.626Z,22.07
2019-01-15T09:58:23.985Z,23.17
2019-01-15T10:00:51.385Z,22.67
2019-01-15T10:03:18.902Z,25.07
2019-01-15T10:05:46.166Z,26.40
2019-01-15T10:08:13.815Z,22.70
2019-01-15T10:10:41.495Z,22.37
2019-01-15T10:13:08.744Z,21.87
2019-01-15T10:15:36.154Z,22.23
2019-01-15T10:18:03.726Z,22.53
2019-01-15T10:20:31.406Z,22.27
2019-01-15T10:22:58.801Z,21.50
2019-01-15T10:25:30.726Z,21.70
2019-01-15T10:27:58.671Z,21.40
2019-01-15T10:30:40.262Z,21.87
2019-01-15T10:33:31.910Z,20.93
2019-01-15T10:35:58.871Z,20.07
2019-01-15T10:38:28.381Z,20.67
2019-01-15T10:40:56.972Z,21.93
2019-01-15T10:43:24.971Z,20.57
2019-01-15T10:45:52.249Z,20.90
2019-01-15T10:48:19.791Z,20.93
2019-01-15T10:50:47.107Z,21.07
2019-01-15T10:53:14.609Z,20.43
2019-01-15T10:55:42.090Z,21.67
2019-01-15T10:58:09.574Z,21.87
2019-01-15T11:00:37.010Z,21.50
2019-01-15T11:03:04.911Z,21.23
2019-01-15T11:05:32.452Z,19.03
2019-01-15T11:07:59.939Z,19.70
2019-01-15T11:10:27.258Z,19.30
2019-01-15T11:12:54.686Z,19.27
2019-01-15T11:15:21.989Z,19.80
2019-01-15T11:17:49.603Z,19.77
2019-01-15T11:20:17.926Z,20.70
2019-01-15T11:22:45.334Z,19.57
2019-01-15T11:25:12.860Z,19.73
2019-01-15T11:27:40.387Z,18.60
2019-01-15T11:30:08.805Z,17.83
2019-01-15T11:32:36.454Z,17.97
2019-01-15T11:35:04.604Z,17.80
2019-01-15T11:37:32.074Z,17.20
2019-01-15T11:39:59.412Z,18.50
2019-01-15T11:42:27.995Z,15.37
2019-01-15T11:44:55.331Z,16.47
2019-01-15T11:47:42.189Z,16.37
2019-01-15T11:50:12.926Z,14.50
2019-01-15T11:52:40.386Z,14.60
2019-01-15T11:55:07.830Z,16.13
2019-01-15T11:57:36.041Z,13.77
2019-01-15T12:00:06.959Z,14.60
2019-01-15T12:02:52.527Z,12.90
2019-01-15T12:05:42.675Z,13.43
2019-01-15T12:08:31.629Z,12.93
2019-01-15T12:11:10.893Z,14.67
2019-01-15T12:13:56.226Z,11.70
2019-01-15T12:16:43.200Z,11.53
2019-01-15T12:19:23.715Z,12.93
2019-01-15T12:22:08.414Z,12.33
2019-01-15T12:24:44.995Z,12.93
2019-01-15T12:27:23.199Z,11.60
2019-01-15T12:30:22.418Z,12.10
2019-01-15T12:33:09.004Z,11.27
2019-01-15T12:36:07.986Z,11.87
2019-01-15T12:39:00.762Z,11.60
2019-01-15T12:41:40.671Z,11.17
2019-01-15T12:44:26.152Z,10.40
2019-01-15T12:47:15.766Z,12.33
2019-01-15T12:50:01.282Z,10.87
2019-01-15T12:52:53.931Z,10.83
2019-01-15T12:55:52.974Z,12.63
2019-01-15T12:58:55.041Z,9.73
2019-01-15T13:01:48.175Z,10.13
2019-01-15T13:04:35.185Z,9.20
2019-01-15T13:07:25.399Z,10.80
2019-01-15T13:10:18.327Z,9.10
2019-01-15T13:13:10.890Z,8.70
2019-01-15T13:15:51.622Z,9.73
2019-01-15T13:18:37.677Z,10.07
2019-01-15T13:21:33.111Z,8.37
2019-01-15T13:24:20.783Z,9.10
2019-01-15T13:27:07.902Z,8.90
2019-01-15T13:29:46.267Z,10.30
2019-01-15T13:32:23.769Z,8.60
2019-01-15T13:35:16.775Z,8.40
2019-01-15T13:38:02.299Z,8.50
2019-01-15T13:40:48.266Z,8.30
2019-01-15T13:43:34.111Z,8.20
2019-01-15T13:46:21.293Z,9.40
2019-01-15T13:49:14.044Z,8.53
2019-01-15T13:52:05.896Z,6.80
2019-01-15T13:54:42.464Z,9.40
2019-01-15T13:57:28.595Z,7.60
2019-01-15T14:00:14.214Z,6.93
2019-01-15T14:03:01.244Z,7.63
2019-01-15T14:05:46.932Z,6.60
2019-01-15T14:08:42.920Z,6.73
2019-01-15T14:11:30.976Z,6.70
2019-01-15T14:14:21.590Z,7.30
2019-01-15T14:17:01.835Z,7.53
2019-01-15T14:19:48.879Z,5.90
2019-01-15T14:22:54.026Z,7.60
2019-01-15T14:25:39.751Z,6.37
2019-01-15T14:28:25.489Z,6.83
2019-01-15T14:31:30.395Z,6.70
2019-01-15T14:34:29.402Z,7.20
2019-01-15T14:37:14.943Z,6.80
2019-01-15T14:40:07.744Z,6.60
2019-01-15T14:42:53.286Z,6.90
2019-01-15T14:45:43.154Z,6.57
2019-01-15T14:48:30.074Z,6.90
2019-01-15T14:51:06.743Z,6.67
2019-01-15T14:53:56.182Z,7.63
2019-01-15T14:56:34.084Z,7.30
2019-01-15T14:59:17.631Z,6.70
2019-01-15T15:02:05.451Z,6.60
2019-01-15T15:04:45.894Z,6.17
2019-01-15T15:07:23.642Z,6.70
2019-01-15T15:10:22.465Z,7.00
2019-01-15T15:13:12.274Z,8.67
2019-01-15T15:16:08.015Z,7.37
2019-01-15T15:19:00.956Z,7.30
2019-01-15T15:21:48.008Z,7.70
2019-01-15T15:24:40.763Z,7.10
2019-01-15T15:27:26.306Z,7.60
2019-01-15T15:30:11.755Z,8.20
2019-01-15T15:32:51.982Z,7.53
2019-01-15T15:35:38.729Z,7.87
2019-01-15T15:38:25.715Z,7.30
2019-01-15T15:41:11.350Z,8.70
2019-01-15T15:44:01.311Z,7.30
2019-01-15T15:46:46.523Z,8.50
2019-01-15T15:49:32.314Z,8.47
2019-01-15T15:52:31.430Z,8.77
2019-01-15T15:55:16.945Z,8.47
2019-01-15T15:58:04.022Z,9.87
2019-01-15T16:01:06.318Z,9.50
2019-01-15T16:03:53.262Z,11.50
2019-01-15T16:06:38.916Z,10.27
2019-01-15T16:09:24.760Z,8.80
2019-01-15T16:12:10.674Z,10.87
2019-01-15T16:14:56.186Z,9.80
2019-01-15T16:17:41.826Z,11.10
2019-01-15T16:20:26.547Z,10.27
2019-01-15T16:23:25.763Z,9.90
2019-01-15T16:26:11.195Z,10.20
2019-01-15T16:28:56.898Z,9.87
2019-01-15T16:31:34.268Z,9.17
2019-01-15T16:34:30.226Z,10.20
2019-01-15T16:37:08.398Z,10.23
2019-01-15T16:40:24.486Z,10.27
2019-01-15T16:43:11.137Z,10.77
2019-01-15T16:46:26.461Z,11.00
2019-01-15T16:49:13.743Z,10.73
2019-01-15T16:52:07.361Z,10.10
2019-01-15T16:54:53.262Z,9.93
2019-01-15T16:57:40.224Z,12.50
2019-01-15T17:00:32.745Z,9.47
2019-01-15T17:03:26.842Z,9.97
2019-01-15T17:06:10.906Z,10.17
2019-01-15T17:08:58.149Z,9.60
2019-01-15T17:11:44.094Z,10.80
2019-01-15T17:14:41.709Z,10.10
2019-01-15T17:17:39.139Z,10.03
2019-01-15T17:20:42.024Z,9.63
2019-01-15T17:23:18.154Z,10.30
2019-01-15T17:26:11.118Z,8.97
2019-01-15T17:28:47.749Z,10.20
2019-01-15T17:31:40.594Z,10.23
2019-01-15T17:34:27.559Z,9.67
2019-01-15T17:37:20.825Z,10.30
2019-01-15T17:40:06.526Z,10.20
2019-01-15T17:43:02.839Z,10.40
2019-01-15T17:45:48.587Z,9.10
2019-01-15T17:48:29.720Z,9.87
2019-01-15T17:51:15.836Z,9.13
2019-01-15T17:54:08.388Z,8.27
2019-01-15T17:57:04.258Z,10.47
2019-01-15T17:59:56.394Z,9.70
2019-01-15T18:02:58.598Z,9.50
2019-01-15T18:05:44.522Z,9.70
2019-01-15T18:08:31.571Z,10.53
2019-01-15T18:11:12.102Z,11.70
2019-01-15T18:13:57.922Z,10.63
2019-01-15T18:16:48.804Z,10.33
2019-01-15T18:19:22.939Z,10.20
2019-01-15T18:22:08.185Z,9.50
2019-01-15T18:24:55.232Z,9.50
2019-01-15T18:27:44.722Z,9.73
2019-01-15T18:30:34.448Z,9.63
2019-01-15T18:33:21.479Z,10.53
2019-01-15T18:36:14.623Z,9.93
2019-01-15T18:38:59.939Z,9.40
2019-01-15T18:41:45.542Z,8.30
2019-01-15T18:44:42.678Z,8.90
2019-01-15T18:47:28.180Z,8.50
2019-01-15T18:50:33.663Z,9.37
2019-01-15T18:53:24.352Z,9.93
2019-01-15T18:56:09.806Z,8.87
2019-01-15T18:58:55.202Z,8.73
2019-01-15T19:01:42.201Z,9.27
2019-01-15T19:04:22.824Z,9.43
2019-01-15T19:07:09.986Z,8.50
2019-01-15T19:10:15.267Z,8.83
2019-01-15T19:13:00.626Z,8.03
2019-01-15T19:15:39.660Z,8.50
2019-01-15T19:18:26.158Z,8.10
2019-01-15T19:21:11.526Z,8.77
2019-01-15T19:23:57.055Z,8.33
2019-01-15T19:26:35.554Z,9.30
2019-01-15T19:29:37.829Z,9.33
2019-01-15T19:32:28.264Z,9.50
2019-01-15T19:35:14.110Z,9.90
2019-01-15T19:37:52.741Z,10.40
2019-01-15T19:40:39.758Z,10.90
2019-01-15T19:43:25.643Z,10.47
2019-01-15T19:46:03.587Z,12.40
2019-01-15T19:48:45.545Z,13.30
2019-01-15T19:51:47.914Z,14.93
2019-01-15T19:54:27.335Z,13.30
2019-01-15T19:57:14.576Z,12.53
2019-01-15T20:00:01.365Z,13.40
2019-01-15T20:02:56.305Z,13.20
2019-01-15T20:05:41.801Z,13.57
2019-01-15T20:08:47.651Z,13.17
2019-01-15T20:11:34.938Z,15.37
2019-01-15T20:14:22.001Z,14.47
2019-01-15T20:17:08.096Z,14.93
2019-01-15T20:20:05.189Z,14.93
2019-01-15T20:23:10.922Z,15.93
2019-01-15T20:26:02.707Z,15.90
2019-01-15T20:28:48.153Z,18.30
2019-01-15T20:31:34.664Z,17.30
2019-01-15T20:34:20.054Z,18.93
2019-01-15T20:37:05.371Z,19.23
2019-01-15T20:39:52.389Z,18.20
2019-01-15T20:42:42.289Z,18.53
2019-01-15T20:45:28.147Z,19.30
2019-01-15T20:48:15.214Z,20.50
2019-01-15T20:51:03.209Z,18.80
2019-01-15T20:53:43.883Z,19.80
2019-01-15T20:56:25.858Z,18.47
2019-01-15T20:59:13.162Z,17.13
2019-01-15T21:02:00.201Z,17.20
2019-01-15T21:04:46.511Z,18.00
2019-01-15T21:07:27.223Z,18.33
2019-01-15T21:10:31.900Z,19.00
2019-01-15T21:13:16.575Z,20.80
2019-01-15T21:16:06.692Z,21.30
2019-01-15T21:18:52.319Z,17.30
2019-01-15T21:21:41.150Z,17.80
2019-01-15T21:24:26.998Z,19.30
2019-01-15T21:27:12.662Z,20.53
2019-01-15T21:30:21.894Z,19.10
2019-01-15T21:33:08.289Z,18.83
2019-01-15T21:35:58.109Z,20.20
2019-01-15T21:38:51.091Z,20.97
2019-01-15T21:41:44.105Z,20.20
2019-01-15T21:44:40.343Z,19.43
2019-01-15T21:47:26.068Z,19.60
2019-01-15T21:50:19.448Z,20.70
2019-01-15T21:53:18.008Z,19.67
2019-01-15T21:56:11.163Z,20.33
2019-01-15T21:58:44.979Z,20.97
2019-01-15T22:01:30.530Z,19.63
2019-01-15T22:04:29.966Z,19.40
2019-01-15T22:07:07.450Z,23.00
2019-01-15T22:09:53.396Z,20.80
2019-01-15T22:12:39.014Z,22.73
2019-01-15T22:15:30.551Z,23.87
2019-01-15T22:18:13.347Z,22.10
2019-01-15T22:21:03.440Z,22.60
2019-01-15T22:23:48.679Z,22.00
2019-01-15T22:26:34.047Z,21.73
2019-01-15T22:29:27.083Z,22.47
2019-01-15T22:32:16.782Z,23.07
2019-01-15T22:35:06.372Z,23.97
2019-01-15T22:37:51.684Z,24.10
2019-01-15T22:40:30.634Z,24.70
2019-01-15T22:43:29.942Z,25.83
2019-01-15T22:46:29.035Z,22.77
2019-01-15T22:49:30.784Z,25.30
2019-01-15T22:52:18.433Z,23.67
2019-01-15T22:55:05.376Z,25.03
2019-01-15T22:57:48.835Z,22.07
2019-01-15T23:00:47.381Z,24.03
2019-01-15T23:03:28.163Z,23.27
2019-01-15T23:06:20.898Z,22.83
2019-01-15T23:09:08.038Z,23.70
2019-01-15T23:11:51.214Z,20.90
2019-01-15T23:14:31.495Z,22.70
2019-01-15T23:17:21.386Z,22.90
2019-01-15T23:20:11.229Z,21.33
2019-01-15T23:23:12.170Z,23.90
2019-01-15T23:26:10.454Z,21.23
2019-01-15T23:29:17.129Z,23.30
2019-01-15T23:32:13.338Z,22.27
2019-01-15T23:35:00.404Z,20.73
2019-01-15T23:38:09.126Z,22.10
2019-01-15T23:40:57.740Z,20.97
2019-01-15T23:43:54.434Z,21.27
2019-01-15T23:46:50.409Z,25.13
2019-01-15T23:49:24.922Z,20.23
2019-01-15T23:52:10.676Z,20.27
2019-01-15T23:54:56.394Z,21.20
2019-01-15T23:57:42.362Z,20.80
